sensor_id;sensor_type;location;lat;lon;timestamp;P1;durP1;ratioP1;P2;durP2;ratioP2
70535;SDS011;58089;48.752;11.338;2022-12-22T05:02:30;49.47;;;24.55;;
70535;SDS011;58089;48.752;11.338;2022-12-22T05:04:56;71.93;;;33.33;;
70535;SDS011;58089;48.752;11.338;2022-12-22T05:07:21;71.37;;;36.17;;
70535;SDS011;58089;48.752;11.338;2022-12-22T05:09:46;68.83;;;35.60;;
70535;SDS011;58089;48.752;11.338;2022-12-22T05:12:11;60.20;;;31.83;;
70535;SDS011;58089;48.752;11.338;2022-12-22T05:14:55;52.25;;;26.90;;
70535;SDS011;58089;48.752;11.338;2022-12-22T05:17:21;56.00;;;29.10;;
70535;SDS011;58089;48.752;11.338;2022-12-22T05:19:46;54.83;;;28.30;;
70535;SDS011;58089;48.752;11.338;2022-12-22T05:22:11;55.90;;;28.95;;
70535;SDS011;58089;48.752;11.338;2022-12-22T05:24:37;57.47;;;29.87;;
70535;SDS011;58089;48.752;11.338;2022-12-22T05:27:02;45.77;;;24.60;;
70535;SDS011;58089;48.752;11.338;2022-12-22T05:29:27;46.87;;;26.37;;
70535;SDS011;58089;48.752;11.338;2022-12-22T05:31:52;47.73;;;25.20;;
70535;SDS011;58089;48.752;11.338;2022-12-22T05:34:18;39.93;;;20.80;;
70535;SDS011;58089;48.752;11.338;2022-12-22T05:36:43;36.97;;;21.43;;
70535;SDS011;58089;48.752;11.338;2022-12-22T05:39:08;39.70;;;20.20;;
70535;SDS011;58089;48.752;11.338;2022-12-22T05:41:34;36.17;;;20.87;;
70535;SDS011;58089;48.752;11.338;2022-12-22T05:43:59;39.17;;;20.20;;
70535;SDS011;58089;48.752;11.338;2022-12-22T05:46:24;40.57;;;22.13;;
70535;SDS011;58089;48.752;11.338;2022-12-22T05:48:49;42.27;;;23.73;;
70535;SDS011;58089;48.752;11.338;2022-12-22T05:51:15;33.97;;;19.57;;
70535;SDS011;58089;48.752;11.338;2022-12-22T05:53:40;36.83;;;21.03;;
70535;SDS011;58089;48.752;11.338;2022-12-22T05:56:06;34.53;;;19.63;;
70535;SDS011;58089;48.752;11.338;2022-12-22T05:58:31;35.00;;;19.65;;
70535;SDS011;58089;48.752;11.338;2022-12-22T06:00:57;37.33;;;19.97;;
70535;SDS011;58089;48.752;11.338;2022-12-22T06:03:23;34.10;;;20.02;;
70535;SDS011;58089;48.752;11.338;2022-12-22T06:05:49;32.95;;;19.58;;
70535;SDS011;58089;48.752;11.338;2022-12-22T06:08:14;38.57;;;21.80;;
70535;SDS011;58089;48.752;11.338;2022-12-22T06:10:40;35.67;;;20.83;;
70535;SDS011;58089;48.752;11.338;2022-12-22T06:13:05;33.17;;;19.60;;
70535;SDS011;58089;48.752;11.338;2022-12-22T06:15:30;34.63;;;19.70;;
70535;SDS011;58089;48.752;11.338;2022-12-22T06:17:56;35.97;;;21.97;;
70535;SDS011;58089;48.752;11.338;2022-12-22T06:20:21;34.27;;;19.63;;
70535;SDS011;58089;48.752;11.338;2022-12-22T06:22:46;32.33;;;18.57;;
70535;SDS011;58089;48.752;11.338;2022-12-22T06:25:11;31.67;;;17.80;;
70535;SDS011;58089;48.752;11.338;2022-12-22T06:27:37;34.77;;;19.37;;
70535;SDS011;58089;48.752;11.338;2022-12-22T06:30:02;30.80;;;18.07;;
70535;SDS011;58089;48.752;11.338;2022-12-22T06:32:28;31.53;;;18.60;;
70535;SDS011;58089;48.752;11.338;2022-12-22T06:34:53;32.77;;;20.07;;
70535;SDS011;58089;48.752;11.338;2022-12-22T06:37:18;38.37;;;25.20;;
70535;SDS011;58089;48.752;11.338;2022-12-22T06:39:44;38.50;;;23.07;;
70535;SDS011;58089;48.752;11.338;2022-12-22T06:42:09;33.63;;;20.00;;
70535;SDS011;58089;48.752;11.338;2022-12-22T06:44:55;33.27;;;20.20;;
70535;SDS011;58089;48.752;11.338;2022-12-22T06:47:21;33.97;;;20.37;;
70535;SDS011;58089;48.752;11.338;2022-12-22T06:49:46;34.40;;;19.60;;
70535;SDS011;58089;48.752;11.338;2022-12-22T06:52:11;30.50;;;18.47;;
70535;SDS011;58089;48.752;11.338;2022-12-22T06:54:37;32.00;;;18.57;;
70535;SDS011;58089;48.752;11.338;2022-12-22T06:57:02;34.43;;;19.50;;
70535;SDS011;58089;48.752;11.338;2022-12-22T06:59:27;30.73;;;18.40;;
70535;SDS011;58089;48.752;11.338;2022-12-22T07:01:52;31.40;;;18.67;;
70535;SDS011;58089;48.752;11.338;2022-12-22T15:24:31;8.73;;;2.28;;
70535;SDS011;58089;48.752;11.338;2022-12-22T15:26:56;9.23;;;1.73;;
70535;SDS011;58089;48.752;11.338;2022-12-22T15:29:22;9.82;;;1.50;;
70535;SDS011;58089;48.752;11.338;2022-12-22T15:31:47;12.80;;;3.10;;
70535;SDS011;58089;48.752;11.338;2022-12-22T15:34:23;11.53;;;3.10;;
70535;SDS011;58089;48.752;11.338;2022-12-22T15:36:49;10.85;;;1.77;;
70535;SDS011;58089;48.752;11.338;2022-12-22T15:39:15;10.37;;;1.90;;
70535;SDS011;58089;48.752;11.338;2022-12-22T15:41:42;12.02;;;2.53;;
70535;SDS011;58089;48.752;11.338;2022-12-22T15:44:08;9.95;;;2.47;;
70535;SDS011;58089;48.752;11.338;2022-12-22T15:46:33;10.80;;;1.70;;
70535;SDS011;58089;48.752;11.338;2022-12-22T15:48:59;9.83;;;2.27;;
70535;SDS011;58089;48.752;11.338;2022-12-22T15:51:25;8.98;;;1.35;;
70535;SDS011;58089;48.752;11.338;2022-12-22T15:53:53;11.05;;;2.42;;
70535;SDS011;58089;48.752;11.338;2022-12-22T15:56:20;11.83;;;2.50;;
70535;SDS011;58089;48.752;11.338;2022-12-22T15:58:47;8.13;;;2.15;;
70535;SDS011;58089;48.752;11.338;2022-12-22T16:01:13;10.10;;;1.63;;
70535;SDS011;58089;48.752;11.338;2022-12-22T16:03:38;12.67;;;2.07;;
70535;SDS011;58089;48.752;11.338;2022-12-22T16:06:04;8.73;;;2.27;;
70535;SDS011;58089;48.752;11.338;2022-12-22T16:08:32;11.18;;;1.90;;
70535;SDS011;58089;48.752;11.338;2022-12-22T16:11:01;11.13;;;1.80;;
70535;SDS011;58089;48.752;11.338;2022-12-22T16:13:27;11.65;;;1.70;;
70535;SDS011;58089;48.752;11.338;2022-12-22T16:15:53;9.13;;;1.92;;
70535;SDS011;58089;48.752;11.338;2022-12-22T16:18:19;9.35;;;1.58;;
70535;SDS011;58089;48.752;11.338;2022-12-22T16:20:44;11.77;;;1.87;;
70535;SDS011;58089;48.752;11.338;2022-12-22T16:23:46;8.93;;;1.60;;
70535;SDS011;58089;48.752;11.338;2022-12-22T16:26:03;11.55;;;3.53;;
70535;SDS011;58089;48.752;11.338;2022-12-22T16:28:29;10.90;;;3.10;;
70535;SDS011;58089;48.752;11.338;2022-12-22T16:30:55;8.80;;;3.20;;
70535;SDS011;58089;48.752;11.338;2022-12-22T16:33:20;15.82;;;5.00;;
70535;SDS011;58089;48.752;11.338;2022-12-22T16:35:45;10.40;;;3.67;;
70535;SDS011;58089;48.752;11.338;2022-12-22T16:38:11;16.70;;;3.40;;
70535;SDS011;58089;48.752;11.338;2022-12-22T16:40:41;10.63;;;3.00;;
70535;SDS011;58089;48.752;11.338;2022-12-22T16:43:22;10.27;;;2.45;;
70535;SDS011;58089;48.752;11.338;2022-12-22T16:45:49;10.15;;;2.28;;
70535;SDS011;58089;48.752;11.338;2022-12-22T16:48:17;8.77;;;2.40;;
70535;SDS011;58089;48.752;11.338;2022-12-22T16:50:46;12.57;;;3.80;;
70535;SDS011;58089;48.752;11.338;2022-12-22T16:53:12;9.05;;;2.50;;
70535;SDS011;58089;48.752;11.338;2022-12-22T16:55:38;12.13;;;2.87;;
70535;SDS011;58089;48.752;11.338;2022-12-22T16:58:04;10.07;;;3.13;;
70535;SDS011;58089;48.752;11.338;2022-12-22T17:00:30;10.43;;;2.90;;
70535;SDS011;58089;48.752;11.338;2022-12-22T17:03:00;9.82;;;2.45;;
70535;SDS011;58089;48.752;11.338;2022-12-22T17:08:00;13.30;;;2.87;;
70535;SDS011;58089;48.752;11.338;2022-12-22T17:10:27;11.27;;;2.05;;
70535;SDS011;58089;48.752;11.338;2022-12-22T17:12:53;10.50;;;2.43;;
70535;SDS011;58089;48.752;11.338;2022-12-22T17:15:20;10.43;;;2.92;;
70535;SDS011;58089;48.752;11.338;2022-12-22T17:17:46;8.63;;;2.20;;
70535;SDS011;58089;48.752;11.338;2022-12-22T17:20:22;10.57;;;2.53;;
70535;SDS011;58089;48.752;11.338;2022-12-22T17:22:51;14.20;;;2.60;;
70535;SDS011;58089;48.752;11.338;2022-12-22T17:25:20;8.68;;;2.20;;
70535;SDS011;58089;48.752;11.338;2022-12-22T17:27:47;9.70;;;2.42;;
70535;SDS011;58089;48.752;11.338;2022-12-22T17:30:16;11.17;;;2.90;;
70535;SDS011;58089;48.752;11.338;2022-12-22T17:32:42;10.70;;;2.92;;
70535;SDS011;58089;48.752;11.338;2022-12-22T17:35:11;17.37;;;3.43;;
70535;SDS011;58089;48.752;11.338;2022-12-22T17:37:37;14.90;;;3.30;;
70535;SDS011;58089;48.752;11.338;2022-12-22T17:40:03;13.95;;;3.50;;
70535;SDS011;58089;48.752;11.338;2022-12-22T17:42:29;14.30;;;2.97;;
70535;SDS011;58089;48.752;11.338;2022-12-22T17:44:55;14.85;;;3.35;;
70535;SDS011;58089;48.752;11.338;2022-12-22T17:47:20;10.57;;;2.60;;
70535;SDS011;58089;48.752;11.338;2022-12-22T17:49:46;16.00;;;3.15;;
70535;SDS011;58089;48.752;11.338;2022-12-22T17:54:47;11.90;;;3.10;;
70535;SDS011;58089;48.752;11.338;2022-12-22T17:57:18;11.88;;;2.95;;
70535;SDS011;58089;48.752;11.338;2022-12-22T17:59:45;12.23;;;2.50;;
70535;SDS011;58089;48.752;11.338;2022-12-22T18:02:21;12.93;;;2.58;;
70535;SDS011;58089;48.752;11.338;2022-12-22T18:04:47;10.02;;;2.80;;
70535;SDS011;58089;48.752;11.338;2022-12-22T18:07:14;12.70;;;2.57;;
70535;SDS011;58089;48.752;11.338;2022-12-22T18:09:41;13.10;;;2.45;;
70535;SDS011;58089;48.752;11.338;2022-12-22T18:12:13;11.63;;;3.03;;
70535;SDS011;58089;48.752;11.338;2022-12-22T18:14:40;11.50;;;2.05;;
70535;SDS011;58089;48.752;11.338;2022-12-22T18:17:09;10.60;;;2.08;;
70535;SDS011;58089;48.752;11.338;2022-12-22T18:19:42;14.40;;;2.37;;
70535;SDS011;58089;48.752;11.338;2022-12-22T18:22:08;13.83;;;2.00;;
70535;SDS011;58089;48.752;11.338;2022-12-22T18:24:54;10.60;;;1.60;;
70535;SDS011;58089;48.752;11.338;2022-12-22T18:27:20;8.43;;;1.80;;
70535;SDS011;58089;48.752;11.338;2022-12-22T18:29:46;10.43;;;2.40;;
70535;SDS011;58089;48.752;11.338;2022-12-22T18:32:12;11.73;;;1.93;;
70535;SDS011;58089;48.752;11.338;2022-12-22T18:34:38;13.40;;;2.03;;
70535;SDS011;58089;48.752;11.338;2022-12-22T18:37:05;10.18;;;1.90;;
70535;SDS011;58089;48.752;11.338;2022-12-22T18:39:34;14.10;;;2.47;;
70535;SDS011;58089;48.752;11.338;2022-12-22T18:42:00;10.13;;;2.10;;
70535;SDS011;58089;48.752;11.338;2022-12-22T18:44:26;10.00;;;1.73;;
70535;SDS011;58089;48.752;11.338;2022-12-22T18:46:51;11.03;;;2.77;;
70535;SDS011;58089;48.752;11.338;2022-12-22T18:49:17;11.90;;;2.20;;
70535;SDS011;58089;48.752;11.338;2022-12-22T18:51:43;8.40;;;1.70;;
70535;SDS011;58089;48.752;11.338;2022-12-22T18:54:28;13.00;;;2.00;;
70535;SDS011;58089;48.752;11.338;2022-12-22T18:56:57;10.50;;;2.00;;
70535;SDS011;58089;48.752;11.338;2022-12-22T18:59:23;10.77;;;1.70;;
70535;SDS011;58089;48.752;11.338;2022-12-22T19:01:51;9.35;;;2.17;;
70535;SDS011;58089;48.752;11.338;2022-12-22T19:04:21;11.02;;;1.83;;
70535;SDS011;58089;48.752;11.338;2022-12-22T19:06:47;8.75;;;1.58;;
70535;SDS011;58089;48.752;11.338;2022-12-22T19:09:13;12.30;;;2.07;;
70535;SDS011;58089;48.752;11.338;2022-12-22T19:11:39;10.98;;;1.80;;
70535;SDS011;58089;48.752;11.338;2022-12-22T19:14:05;12.57;;;2.37;;
70535;SDS011;58089;48.752;11.338;2022-12-22T19:16:40;10.38;;;2.15;;
70535;SDS011;58089;48.752;11.338;2022-12-22T19:19:05;11.37;;;2.00;;
70535;SDS011;58089;48.752;11.338;2022-12-22T19:21:30;10.67;;;2.20;;
70535;SDS011;58089;48.752;11.338;2022-12-22T19:23:56;9.37;;;1.83;;
70535;SDS011;58089;48.752;11.338;2022-12-22T19:26:22;9.63;;;2.03;;
70535;SDS011;58089;48.752;11.338;2022-12-22T19:28:49;13.57;;;2.03;;
70535;SDS011;58089;48.752;11.338;2022-12-22T19:31:23;10.38;;;1.90;;
70535;SDS011;58089;48.752;11.338;2022-12-22T19:33:50;9.82;;;2.25;;
70535;SDS011;58089;48.752;11.338;2022-12-22T19:36:17;12.30;;;2.15;;
70535;SDS011;58089;48.752;11.338;2022-12-22T19:38:45;10.10;;;1.97;;
70535;SDS011;58089;48.752;11.338;2022-12-22T19:41:13;8.98;;;2.15;;
70535;SDS011;58089;48.752;11.338;2022-12-22T19:43:47;8.63;;;1.73;;
70535;SDS011;58089;48.752;11.338;2022-12-22T19:46:12;9.90;;;1.57;;
70535;SDS011;58089;48.752;11.338;2022-12-22T19:48:38;8.87;;;2.33;;
70535;SDS011;58089;48.752;11.338;2022-12-22T19:51:03;7.20;;;1.50;;
70535;SDS011;58089;48.752;11.338;2022-12-22T19:53:28;9.23;;;1.73;;
70535;SDS011;58089;48.752;11.338;2022-12-22T19:55:54;7.40;;;1.77;;
70535;SDS011;58089;48.752;11.338;2022-12-22T19:58:23;7.85;;;1.50;;
70535;SDS011;58089;48.752;11.338;2022-12-22T20:00:58;8.07;;;1.70;;
70535;SDS011;58089;48.752;11.338;2022-12-22T20:03:24;5.17;;;1.00;;
70535;SDS011;58089;48.752;11.338;2022-12-22T20:05:49;6.43;;;1.50;;
70535;SDS011;58089;48.752;11.338;2022-12-22T20:08:15;8.70;;;1.73;;
70535;SDS011;58089;48.752;11.338;2022-12-22T20:10:41;8.98;;;1.75;;
70535;SDS011;58089;48.752;11.338;2022-12-22T20:13:25;9.23;;;2.13;;
70535;SDS011;58089;48.752;11.338;2022-12-22T20:15:54;6.43;;;1.60;;
70535;SDS011;58089;48.752;11.338;2022-12-22T20:18:20;6.73;;;1.47;;
70535;SDS011;58089;48.752;11.338;2022-12-22T20:20:55;6.22;;;1.40;;
70535;SDS011;58089;48.752;11.338;2022-12-22T20:23:25;6.63;;;1.43;;
70535;SDS011;58089;48.752;11.338;2022-12-22T20:25:55;5.00;;;1.00;;
70535;SDS011;58089;48.752;11.338;2022-12-22T20:28:23;3.65;;;0.80;;
70535;SDS011;58089;48.752;11.338;2022-12-22T20:30:53;5.28;;;0.80;;
70535;SDS011;58089;48.752;11.338;2022-12-22T20:33:19;6.72;;;1.80;;
70535;SDS011;58089;48.752;11.338;2022-12-22T20:35:46;4.70;;;1.40;;
70535;SDS011;58089;48.752;11.338;2022-12-22T20:38:13;5.07;;;1.75;;
70535;SDS011;58089;48.752;11.338;2022-12-22T20:40:47;5.40;;;1.10;;
70535;SDS011;58089;48.752;11.338;2022-12-22T20:43:14;5.30;;;0.90;;
70535;SDS011;58089;48.752;11.338;2022-12-22T20:45:42;6.07;;;1.00;;
70535;SDS011;58089;48.752;11.338;2022-12-22T20:48:12;8.67;;;1.20;;
70535;SDS011;58089;48.752;11.338;2022-12-22T20:50:42;6.93;;;1.20;;
70535;SDS011;58089;48.752;11.338;2022-12-22T20:53:08;6.80;;;1.37;;
70535;SDS011;58089;48.752;11.338;2022-12-22T20:55:35;7.85;;;1.33;;
70535;SDS011;58089;48.752;11.338;2022-12-22T20:58:01;11.33;;;1.70;;
70535;SDS011;58089;48.752;11.338;2022-12-22T21:00:27;9.60;;;1.50;;
70535;SDS011;58089;48.752;11.338;2022-12-22T21:02:52;12.02;;;1.90;;
70535;SDS011;58089;48.752;11.338;2022-12-22T21:05:18;8.77;;;1.77;;
70535;SDS011;58089;48.752;11.338;2022-12-22T21:07:45;11.25;;;1.40;;
70535;SDS011;58089;48.752;11.338;2022-12-22T21:10:18;6.43;;;1.50;;
70535;SDS011;58089;48.752;11.338;2022-12-22T21:12:47;12.55;;;2.00;;
70535;SDS011;58089;48.752;11.338;2022-12-22T21:15:20;11.23;;;1.65;;
70535;SDS011;58089;48.752;11.338;2022-12-22T21:17:47;8.23;;;1.40;;
70535;SDS011;58089;48.752;11.338;2022-12-22T21:20:20;12.98;;;1.90;;
70535;SDS011;58089;48.752;11.338;2022-12-22T21:22:46;8.55;;;1.80;;
70535;SDS011;58089;48.752;11.338;2022-12-22T21:25:12;9.27;;;1.57;;
70535;SDS011;58089;48.752;11.338;2022-12-22T21:27:38;10.37;;;1.70;;
70535;SDS011;58089;48.752;11.338;2022-12-22T21:30:12;8.07;;;1.80;;
70535;SDS011;58089;48.752;11.338;2022-12-22T21:32:39;8.43;;;1.27;;
70535;SDS011;58089;48.752;11.338;2022-12-22T21:35:04;7.73;;;1.47;;
70535;SDS011;58089;48.752;11.338;2022-12-22T21:37:30;10.03;;;1.60;;
70535;SDS011;58089;48.752;11.338;2022-12-22T21:39:59;14.52;;;2.17;;
70535;SDS011;58089;48.752;11.338;2022-12-22T21:42:24;12.47;;;2.10;;
70535;SDS011;58089;48.752;11.338;2022-12-22T21:44:50;9.20;;;1.77;;
70535;SDS011;58089;48.752;11.338;2022-12-22T21:47:16;8.93;;;1.43;;
70535;SDS011;58089;48.752;11.338;2022-12-22T21:49:42;12.77;;;1.42;;
70535;SDS011;58089;48.752;11.338;2022-12-22T21:52:07;10.20;;;1.60;;
70535;SDS011;58089;48.752;11.338;2022-12-22T21:54:33;8.13;;;1.47;;
70535;SDS011;58089;48.752;11.338;2022-12-22T21:56:58;11.63;;;1.80;;
70535;SDS011;58089;48.752;11.338;2022-12-22T21:59:23;9.53;;;1.97;;
70535;SDS011;58089;48.752;11.338;2022-12-22T22:01:49;9.48;;;1.52;;
70535;SDS011;58089;48.752;11.338;2022-12-22T22:04:16;9.88;;;1.77;;
70535;SDS011;58089;48.752;11.338;2022-12-22T22:06:41;10.03;;;1.70;;
70535;SDS011;58089;48.752;11.338;2022-12-22T22:09:07;7.53;;;1.57;;
70535;SDS011;58089;48.752;11.338;2022-12-22T22:11:32;9.83;;;1.40;;
70535;SDS011;58089;48.752;11.338;2022-12-22T22:14:17;6.97;;;1.15;;
70535;SDS011;58089;48.752;11.338;2022-12-22T22:16:43;9.33;;;1.83;;
70535;SDS011;58089;48.752;11.338;2022-12-22T22:19:08;10.87;;;2.60;;
70535;SDS011;58089;48.752;11.338;2022-12-22T22:21:33;8.70;;;1.33;;
70535;SDS011;58089;48.752;11.338;2022-12-22T22:23:58;8.37;;;1.83;;
70535;SDS011;58089;48.752;11.338;2022-12-22T22:26:24;9.23;;;1.53;;
70535;SDS011;58089;48.752;11.338;2022-12-22T22:28:51;12.23;;;1.70;;
70535;SDS011;58089;48.752;11.338;2022-12-22T22:31:17;11.40;;;2.28;;
70535;SDS011;58089;48.752;11.338;2022-12-22T22:33:42;8.90;;;1.80;;
70535;SDS011;58089;48.752;11.338;2022-12-22T22:36:07;10.47;;;1.90;;
70535;SDS011;58089;48.752;11.338;2022-12-22T22:38:33;8.95;;;2.03;;
70535;SDS011;58089;48.752;11.338;2022-12-22T22:40:59;8.73;;;1.67;;
70535;SDS011;58089;48.752;11.338;2022-12-22T22:43:24;10.67;;;2.07;;
70535;SDS011;58089;48.752;11.338;2022-12-22T22:45:49;11.97;;;1.70;;
70535;SDS011;58089;48.752;11.338;2022-12-22T22:48:16;8.77;;;1.93;;
70535;SDS011;58089;48.752;11.338;2022-12-22T22:50:44;8.80;;;1.70;;
70535;SDS011;58089;48.752;11.338;2022-12-22T22:53:09;8.90;;;1.50;;
70535;SDS011;58089;48.752;11.338;2022-12-22T22:55:34;11.43;;;1.73;;
70535;SDS011;58089;48.752;11.338;2022-12-22T22:58:00;8.00;;;1.73;;
